Terminal Aerodrome Forecast
Issued by NWS

Home | Current Version | Previous Version | Text Only | Print | Product List | Glossary On
Versions: 1 2 3 4 5 6 7 8 9 10 11 12 13 14 15 16 17 18
630
FTUS41 KBGM 191138
TAFRME
TAF
KRME 191138Z 1912/2012 11010KT P6SM BKN200 WS020/20035KT
     FM191900 14008KT 5SM -RA OVC030 WS020/21035KT
     FM192100 12007KT 3SM -RA OVC015 WS020/20040KT=

USA.gov is the U.S. government's official web portal to all federal, state and local government web resources and services.